createdAt,value
2022-10-26T00:01:12.812Z,1.05
2022-10-26T00:03:41.515Z,0.82
2022-10-26T00:06:12.393Z,1.30
2022-10-26T00:08:39.364Z,2.13
2022-10-26T00:11:07.194Z,1.17
2022-10-26T00:13:34.847Z,1.75
2022-10-26T00:16:02.361Z,3.10
2022-10-26T00:18:29.372Z,1.27
2022-10-26T00:21:02.380Z,2.25
2022-10-26T00:23:29.489Z,2.53
2022-10-26T00:25:57.367Z,2.85
2022-10-26T00:28:24.804Z,1.67
2022-10-26T00:30:52.124Z,2.20
2022-10-26T00:33:19.325Z,1.60
2022-10-26T00:35:54.152Z,1.55
2022-10-26T00:38:21.286Z,1.45
2022-10-26T00:40:48.844Z,1.20
2022-10-26T00:43:37.086Z,1.30
2022-10-26T00:46:08.269Z,1.40
2022-10-26T00:48:49.651Z,1.10
2022-10-26T00:51:25.090Z,1.52
2022-10-26T00:53:53.502Z,2.57
2022-10-26T00:56:20.943Z,1.75
2022-10-26T00:58:48.467Z,1.83
2022-10-26T01:01:15.796Z,1.35
2022-10-26T01:03:43.923Z,1.15
2022-10-26T01:06:12.612Z,1.35
2022-10-26T01:08:40.327Z,1.17
2022-10-26T01:11:07.339Z,1.67
2022-10-26T01:13:39.023Z,1.45
2022-10-26T01:16:16.272Z,2.25
2022-10-26T01:19:12.610Z,1.73
2022-10-26T01:22:07.456Z,1.45
2022-10-26T01:24:52.780Z,1.27
2022-10-26T01:27:30.033Z,2.03
2022-10-26T01:30:44.017Z,1.55
2022-10-26T01:33:25.253Z,1.38
2022-10-26T01:36:00.890Z,1.85
2022-10-26T01:38:50.074Z,1.95
2022-10-26T01:41:33.070Z,1.75
2022-10-26T01:44:04.683Z,1.08
2022-10-26T01:46:36.597Z,1.45
2022-10-26T01:49:08.206Z,2.28
2022-10-26T01:51:35.918Z,1.20
2022-10-26T01:54:02.838Z,1.30
2022-10-26T01:56:34.159Z,1.20
2022-10-26T01:59:30.555Z,1.40
2022-10-26T02:02:34.783Z,1.00
2022-10-26T02:05:13.743Z,1.63
2022-10-26T02:07:57.645Z,1.75
2022-10-26T02:10:51.252Z,1.20
2022-10-26T02:14:08.510Z,1.17
2022-10-26T02:17:02.858Z,2.50
2022-10-26T02:19:51.213Z,2.33
2022-10-26T02:22:38.263Z,1.30
2022-10-26T02:25:09.703Z,1.00
2022-10-26T02:27:42.559Z,2.00
2022-10-26T02:30:10.944Z,1.80
2022-10-26T02:32:42.951Z,2.20
2022-10-26T02:35:12.004Z,1.75
2022-10-26T02:37:40.118Z,1.60
2022-10-26T02:40:12.179Z,1.58
2022-10-26T02:42:42.730Z,1.17
2022-10-26T02:45:14.167Z,2.45
2022-10-26T02:47:41.199Z,2.08
2022-10-26T02:50:08.538Z,1.65
2022-10-26T02:52:50.726Z,1.10
2022-10-26T02:55:23.633Z,1.60
2022-10-26T02:57:55.931Z,1.27
2022-10-26T03:00:23.025Z,1.85
2022-10-26T03:02:57.402Z,1.50
2022-10-26T03:05:29.403Z,1.38
2022-10-26T03:07:56.907Z,1.42
2022-10-26T03:10:24.358Z,1.20
2022-10-26T03:12:52.389Z,1.33
2022-10-26T03:15:19.483Z,1.60
2022-10-26T03:17:46.852Z,1.50
2022-10-26T03:20:14.029Z,1.80
2022-10-26T03:22:40.990Z,3.42
2022-10-26T03:27:35.659Z,1.58
2022-10-26T03:30:02.666Z,1.38
2022-10-26T03:32:29.563Z,1.25
2022-10-26T03:34:56.527Z,1.63
2022-10-26T03:37:23.907Z,1.45
2022-10-26T03:39:50.801Z,1.17
2022-10-26T03:42:17.727Z,1.70
2022-10-26T03:44:44.796Z,1.30
2022-10-26T03:47:11.718Z,1.10
2022-10-26T03:49:38.613Z,1.23
2022-10-26T03:52:05.524Z,1.60
2022-10-26T03:54:32.502Z,1.35
2022-10-26T03:56:59.434Z,2.50
2022-10-26T03:59:26.397Z,1.25
2022-10-26T04:01:56.746Z,1.70
2022-10-26T04:04:25.210Z,2.47
2022-10-26T04:06:52.990Z,1.33
2022-10-26T04:09:19.905Z,1.60
2022-10-26T04:11:46.875Z,1.95
2022-10-26T04:14:13.773Z,1.60
2022-10-26T04:16:40.743Z,1.75
2022-10-26T04:19:07.797Z,1.70
2022-10-26T04:21:35.548Z,1.65
2022-10-26T04:24:02.876Z,2.47
2022-10-26T04:26:29.861Z,2.13
2022-10-26T04:28:57.087Z,1.98
2022-10-26T04:31:24.024Z,1.85
2022-10-26T04:33:50.999Z,2.15
2022-10-26T04:36:17.934Z,1.63
2022-10-26T04:38:44.891Z,1.88
2022-10-26T04:41:11.847Z,1.58
2022-10-26T04:43:38.833Z,2.40
2022-10-26T04:46:05.935Z,3.45
2022-10-26T04:48:32.917Z,1.50
2022-10-26T04:51:00.589Z,1.63
2022-10-26T04:53:28.365Z,2.00
2022-10-26T04:55:59.988Z,1.98
2022-10-26T04:58:27.919Z,1.73
2022-10-26T05:00:55.514Z,1.92
2022-10-26T05:03:22.734Z,1.92
2022-10-26T05:05:49.782Z,1.88
2022-10-26T05:08:16.787Z,3.78
2022-10-26T05:10:47.901Z,2.17
2022-10-26T05:13:14.897Z,1.85
2022-10-26T05:15:41.913Z,3.03
2022-10-26T05:18:09.581Z,2.05
2022-10-26T05:20:37.564Z,2.47
2022-10-26T05:23:06.981Z,1.90
2022-10-26T05:25:37.069Z,2.63
2022-10-26T05:28:08.109Z,3.03
2022-10-26T05:30:35.144Z,3.63
2022-10-26T05:33:03.450Z,2.85
2022-10-26T05:35:31.465Z,1.63
2022-10-26T05:37:58.803Z,2.38
2022-10-26T05:40:26.680Z,1.83
2022-10-26T05:43:01.072Z,2.30
2022-10-26T05:45:28.560Z,2.40
2022-10-26T05:47:58.596Z,2.33
2022-10-26T05:50:28.688Z,2.30
2022-10-26T05:52:55.951Z,2.35
2022-10-26T05:55:23.614Z,1.63
2022-10-26T05:57:51.126Z,1.83
2022-10-26T06:00:21.795Z,2.55
2022-10-26T06:03:13.320Z,2.33
2022-10-26T06:06:02.562Z,2.58
2022-10-26T06:08:32.491Z,2.45
2022-10-26T06:10:59.822Z,2.17
2022-10-26T06:13:27.400Z,2.78
2022-10-26T06:16:14.731Z,2.60
2022-10-26T06:19:08.053Z,2.28
2022-10-26T06:21:50.635Z,2.83
2022-10-26T06:24:54.251Z,1.95
2022-10-26T06:27:46.407Z,2.45
2022-10-26T06:30:13.722Z,1.75
2022-10-26T06:32:45.011Z,2.88
2022-10-26T06:35:45.557Z,2.00
2022-10-26T06:38:17.095Z,2.38
2022-10-26T06:40:46.825Z,2.78
2022-10-26T06:43:26.029Z,2.65
2022-10-26T06:46:05.270Z,3.00
2022-10-26T06:48:44.971Z,2.97
2022-10-26T06:51:15.690Z,2.92
2022-10-26T06:54:08.755Z,2.03
2022-10-26T06:56:36.681Z,3.95
2022-10-26T06:59:40.867Z,4.07
2022-10-26T07:02:10.204Z,3.00
2022-10-26T07:04:37.233Z,4.47
2022-10-26T07:07:04.340Z,4.38
2022-10-26T07:09:31.276Z,4.57
2022-10-26T07:11:58.181Z,5.90
2022-10-26T07:14:25.122Z,5.00
2022-10-26T07:16:52.208Z,2.95
2022-10-26T07:19:19.157Z,2.70
2022-10-26T07:21:46.159Z,2.20
2022-10-26T07:24:13.045Z,5.18
2022-10-26T07:26:40.049Z,2.70
2022-10-26T07:29:07.095Z,3.65
2022-10-26T07:31:34.046Z,2.92
2022-10-26T07:34:01.066Z,3.70
2022-10-26T07:36:31.093Z,4.53
2022-10-26T07:38:58.026Z,3.63
2022-10-26T07:41:24.979Z,3.88
2022-10-26T07:43:51.983Z,2.75
2022-10-26T07:46:19.420Z,3.47
2022-10-26T07:48:46.400Z,2.33
2022-10-26T07:51:13.649Z,2.42
2022-10-26T07:53:40.763Z,3.13
2022-10-26T07:56:08.206Z,3.95
2022-10-26T07:58:35.290Z,3.10
2022-10-26T08:01:11.493Z,3.10
2022-10-26T08:06:07.708Z,5.68
2022-10-26T08:08:34.641Z,4.57
2022-10-26T08:11:02.260Z,8.57
2022-10-26T08:13:29.473Z,8.05
2022-10-26T08:16:01.231Z,7.35
2022-10-26T08:18:28.582Z,6.03
2022-10-26T08:21:01.811Z,4.50
2022-10-26T08:23:37.322Z,5.63
2022-10-26T08:26:05.187Z,6.53
2022-10-26T08:28:32.127Z,4.20
2022-10-26T08:30:59.238Z,5.90
2022-10-26T08:33:26.754Z,5.28
2022-10-26T08:35:58.198Z,6.55
2022-10-26T08:38:25.598Z,6.75
2022-10-26T08:40:53.619Z,7.20
2022-10-26T08:43:55.892Z,6.78
2022-10-26T08:46:32.667Z,7.43
2022-10-26T08:49:05.028Z,5.47
2022-10-26T08:51:37.570Z,5.90
2022-10-26T08:54:14.359Z,5.53
2022-10-26T08:56:48.575Z,4.68
2022-10-26T08:59:35.855Z,6.13
2022-10-26T09:02:02.997Z,4.43
2022-10-26T09:04:31.826Z,4.43
2022-10-26T09:07:17.494Z,6.60
2022-10-26T09:09:59.549Z,5.50
2022-10-26T09:12:49.284Z,6.00
2022-10-26T09:15:31.827Z,5.43
2022-10-26T09:18:20.944Z,5.13
2022-10-26T09:21:09.188Z,5.47
2022-10-26T09:23:54.510Z,6.78
2022-10-26T09:26:49.620Z,4.55
2022-10-26T09:29:16.570Z,4.95
2022-10-26T09:31:47.663Z,5.97
2022-10-26T09:34:31.460Z,5.68
2022-10-26T09:36:58.554Z,6.57
2022-10-26T09:39:42.491Z,5.20
2022-10-26T09:42:16.567Z,5.22
2022-10-26T09:44:59.082Z,5.70
2022-10-26T09:47:37.378Z,6.40
2022-10-26T09:50:31.075Z,5.43
2022-10-26T09:52:58.100Z,5.25
2022-10-26T09:55:25.044Z,4.10
2022-10-26T09:57:57.775Z,4.63
2022-10-26T10:00:28.960Z,4.07
2022-10-26T10:02:58.349Z,4.03
2022-10-26T10:05:49.923Z,3.17
2022-10-26T10:08:19.810Z,2.83
2022-10-26T10:11:07.429Z,3.50
2022-10-26T10:13:37.354Z,3.10
2022-10-26T10:16:19.352Z,3.90
2022-10-26T10:19:00.444Z,4.32
2022-10-26T10:21:44.928Z,5.55
2022-10-26T10:24:25.961Z,3.53
2022-10-26T10:27:02.418Z,4.43
2022-10-26T10:29:35.097Z,3.53
2022-10-26T10:32:03.797Z,5.25
2022-10-26T10:34:32.795Z,5.22
2022-10-26T10:37:01.468Z,5.25
2022-10-26T10:39:40.444Z,5.07
2022-10-26T10:42:23.973Z,3.42
2022-10-26T10:44:54.135Z,3.97
2022-10-26T10:47:31.073Z,5.32
2022-10-26T10:50:12.726Z,5.65
2022-10-26T10:52:39.974Z,3.72
2022-10-26T10:55:22.629Z,4.55
2022-10-26T10:58:04.093Z,3.90
2022-10-26T11:00:34.501Z,3.60
2022-10-26T11:03:14.232Z,2.20
2022-10-26T11:06:06.223Z,3.78
2022-10-26T11:08:47.246Z,1.13
2022-10-26T11:11:41.746Z,1.30
2022-10-26T11:14:14.445Z,0.60
2022-10-26T11:16:47.605Z,0.57
2022-10-26T11:19:24.438Z,0.98
2022-10-26T11:21:55.577Z,0.52
2022-10-26T11:24:31.631Z,0.45
2022-10-26T11:27:22.711Z,0.52
2022-10-26T11:30:19.982Z,0.50
2022-10-26T11:35:43.226Z,0.20
2022-10-26T11:38:45.289Z,0.40
2022-10-26T11:41:33.599Z,0.30
2022-10-26T11:44:16.054Z,0.88
2022-10-26T11:47:04.089Z,0.10
2022-10-26T11:49:46.614Z,0.30
2022-10-26T11:52:32.588Z,0.38
2022-10-26T11:55:04.915Z,0.13
2022-10-26T11:57:37.392Z,0.20
2022-10-26T12:00:15.903Z,0.20
2022-10-26T12:02:46.451Z,0.10
2022-10-26T12:05:16.468Z,0.17
2022-10-26T12:07:54.456Z,0.17
2022-10-26T12:10:38.411Z,0.32
2022-10-26T12:13:24.857Z,0.82
2022-10-26T12:16:15.094Z,1.25
2022-10-26T12:18:56.610Z,1.10
2022-10-26T12:21:32.029Z,1.73
2022-10-26T12:23:59.998Z,0.93
2022-10-26T12:26:26.892Z,1.33
2022-10-26T12:29:03.061Z,1.02
2022-10-26T12:34:00.878Z,0.70
2022-10-26T12:36:49.682Z,0.82
2022-10-26T12:39:37.934Z,0.90
2022-10-26T12:42:04.903Z,0.93
2022-10-26T12:44:42.692Z,1.25
2022-10-26T12:47:11.256Z,0.60
2022-10-26T12:50:00.086Z,0.80
2022-10-26T12:52:35.416Z,0.80
2022-10-26T12:55:10.644Z,0.73
2022-10-26T12:58:00.323Z,1.15
2022-10-26T13:00:28.268Z,1.38
2022-10-26T13:03:23.861Z,1.38
2022-10-26T13:06:19.628Z,0.98
2022-10-26T13:08:50.055Z,1.50
2022-10-26T13:11:25.258Z,0.65
2022-10-26T13:14:02.620Z,1.35
2022-10-26T13:16:30.179Z,1.27
2022-10-26T13:18:58.108Z,1.45
2022-10-26T13:21:26.493Z,1.20
2022-10-26T13:24:01.831Z,1.52
2022-10-26T13:26:31.351Z,1.67
2022-10-26T13:29:03.417Z,1.73
2022-10-26T13:31:33.028Z,1.20
2022-10-26T13:36:47.537Z,1.05
2022-10-26T13:39:20.470Z,1.42
2022-10-26T13:41:51.253Z,2.10
2022-10-26T13:44:53.334Z,3.00
2022-10-26T13:47:46.960Z,2.95
2022-10-26T13:50:19.667Z,3.50
2022-10-26T13:52:51.548Z,1.88
2022-10-26T13:55:29.953Z,5.45
2022-10-26T13:58:02.763Z,7.40
2022-10-26T14:00:29.792Z,4.22
2022-10-26T14:02:56.779Z,3.13
2022-10-26T14:05:24.099Z,4.68
2022-10-26T14:07:57.624Z,2.45
2022-10-26T14:10:38.242Z,2.60
2022-10-26T14:13:12.923Z,4.43
2022-10-26T14:15:44.712Z,2.60
2022-10-26T14:18:31.626Z,2.50
2022-10-26T14:21:07.802Z,3.08
2022-10-26T14:26:04.861Z,2.50
2022-10-26T14:28:38.962Z,2.50
2022-10-26T14:31:16.595Z,3.45
2022-10-26T14:33:46.569Z,2.90
2022-10-26T14:36:15.180Z,3.17
2022-10-26T14:38:47.802Z,3.13
2022-10-26T14:41:17.865Z,2.78
2022-10-26T14:43:45.440Z,3.33
2022-10-26T14:46:17.489Z,3.42
2022-10-26T14:48:58.974Z,1.83
2022-10-26T14:51:28.180Z,2.20
2022-10-26T14:54:01.259Z,2.40
2022-10-26T14:56:37.425Z,1.60
2022-10-26T14:59:13.333Z,2.28
2022-10-26T15:02:15.426Z,4.80
2022-10-26T15:05:04.677Z,3.17
2022-10-26T15:07:41.044Z,3.78
2022-10-26T15:10:37.032Z,2.28
2022-10-26T15:13:09.975Z,3.00
2022-10-26T15:15:39.689Z,3.55
2022-10-26T15:18:24.827Z,2.45
2022-10-26T15:20:53.418Z,2.22
2022-10-26T15:23:22.827Z,3.28
2022-10-26T15:25:56.161Z,2.90
2022-10-26T15:28:33.134Z,3.42
2022-10-26T15:31:12.187Z,2.75
2022-10-26T15:33:44.465Z,2.78
2022-10-26T15:36:13.808Z,2.03
2022-10-26T15:38:41.198Z,2.20
2022-10-26T15:41:33.610Z,1.98
2022-10-26T15:44:05.959Z,1.77
2022-10-26T15:46:35.745Z,3.75
2022-10-26T15:49:05.893Z,1.95
2022-10-26T15:51:32.932Z,3.33
2022-10-26T15:54:04.830Z,3.10
2022-10-26T15:56:32.446Z,2.35
2022-10-26T15:58:59.536Z,2.83
2022-10-26T16:01:29.148Z,3.30
2022-10-26T16:03:56.549Z,2.80
2022-10-26T16:06:27.526Z,1.45
2022-10-26T16:08:58.302Z,3.10
2022-10-26T16:11:25.893Z,2.97
2022-10-26T16:13:53.801Z,2.72
2022-10-26T16:16:22.447Z,3.85
2022-10-26T16:19:06.145Z,2.22
2022-10-26T16:21:42.036Z,1.83
2022-10-26T16:24:10.377Z,3.03
2022-10-26T16:26:37.422Z,2.58
2022-10-26T16:29:04.432Z,2.63
2022-10-26T16:31:32.119Z,3.92
2022-10-26T16:34:01.791Z,2.63
2022-10-26T16:36:34.134Z,2.15
2022-10-26T16:41:29.513Z,2.13
2022-10-26T16:43:56.716Z,2.65
2022-10-26T16:46:24.206Z,2.08
2022-10-26T16:48:51.900Z,1.55
2022-10-26T16:51:27.731Z,1.58
2022-10-26T16:53:56.625Z,2.20
2022-10-26T16:56:26.685Z,1.30
2022-10-26T16:58:54.393Z,1.50
2022-10-26T17:01:21.894Z,1.02
2022-10-26T17:03:50.922Z,1.55
2022-10-26T17:06:19.200Z,1.65
2022-10-26T17:08:47.032Z,1.88
2022-10-26T17:11:17.778Z,1.10
2022-10-26T17:13:45.697Z,1.27
2022-10-26T17:16:16.071Z,1.52
2022-10-26T17:18:44.211Z,1.38
2022-10-26T17:21:12.843Z,2.03
2022-10-26T17:23:40.274Z,1.73
2022-10-26T17:26:10.137Z,2.00
2022-10-26T17:28:37.746Z,1.38
2022-10-26T17:31:10.750Z,1.30
2022-10-26T17:33:39.421Z,1.00
2022-10-26T17:36:08.097Z,1.25
2022-10-26T17:38:40.561Z,2.65
2022-10-26T17:41:13.356Z,1.98
2022-10-26T17:43:41.685Z,2.10
2022-10-26T17:46:12.592Z,3.50
2022-10-26T17:48:39.814Z,2.15
2022-10-26T17:51:10.235Z,2.10
2022-10-26T17:53:37.097Z,2.20
2022-10-26T17:56:21.929Z,1.15
2022-10-26T17:58:56.728Z,1.05
2022-10-26T18:01:24.125Z,1.17
2022-10-26T18:03:51.244Z,1.45
2022-10-26T18:06:18.837Z,2.75
2022-10-26T18:08:46.055Z,1.92
2022-10-26T18:11:22.549Z,3.05
2022-10-26T18:13:54.023Z,2.90
2022-10-26T18:16:22.589Z,3.08
2022-10-26T18:18:55.109Z,3.70
2022-10-26T18:21:21.959Z,3.08
2022-10-26T18:23:48.863Z,2.13
2022-10-26T18:26:21.301Z,2.65
2022-10-26T18:28:48.224Z,1.58
2022-10-26T18:31:17.876Z,1.20
2022-10-26T18:33:45.198Z,1.70
2022-10-26T18:36:17.525Z,2.70
2022-10-26T18:38:46.923Z,2.13
2022-10-26T18:41:15.976Z,2.10
2022-10-26T18:43:45.014Z,2.13
2022-10-26T18:46:22.987Z,1.80
2022-10-26T18:48:53.877Z,2.00
2022-10-26T18:51:25.356Z,2.22
2022-10-26T18:53:52.653Z,2.20
2022-10-26T18:56:21.320Z,1.75
2022-10-26T18:58:51.669Z,1.10
2022-10-26T19:01:27.240Z,0.80
2022-10-26T19:04:02.784Z,1.55
2022-10-26T19:06:35.135Z,0.90
2022-10-26T19:09:02.438Z,1.10
2022-10-26T19:11:31.124Z,0.63
2022-10-26T19:14:00.600Z,1.80
2022-10-26T19:16:47.268Z,2.15
2022-10-26T19:19:16.301Z,1.65
2022-10-26T19:21:44.171Z,1.60
2022-10-26T19:24:22.574Z,2.83
2022-10-26T19:26:51.186Z,3.17
2022-10-26T19:29:19.767Z,2.58
2022-10-26T19:31:48.155Z,2.22
2022-10-26T19:34:16.014Z,3.30
2022-10-26T19:36:45.183Z,2.17
2022-10-26T19:39:16.892Z,1.85
2022-10-26T19:41:44.898Z,2.13
2022-10-26T19:44:12.394Z,1.55
2022-10-26T19:46:39.748Z,2.30
2022-10-26T19:49:07.434Z,1.30
2022-10-26T19:51:34.419Z,3.22
2022-10-26T19:54:06.082Z,1.67
2022-10-26T19:56:34.755Z,1.67
2022-10-26T19:59:01.869Z,1.65
2022-10-26T20:01:29.003Z,1.63
2022-10-26T20:03:57.431Z,2.35
2022-10-26T20:06:24.716Z,2.70
2022-10-26T20:08:51.688Z,3.00
2022-10-26T20:11:19.455Z,1.45
2022-10-26T20:13:50.248Z,3.08
2022-10-26T20:16:17.831Z,1.55
2022-10-26T20:18:47.813Z,1.65
2022-10-26T20:21:29.757Z,2.40
2022-10-26T20:24:00.050Z,1.77
2022-10-26T20:26:28.608Z,2.72
2022-10-26T20:28:55.984Z,2.83
2022-10-26T20:31:22.877Z,2.70
2022-10-26T20:33:51.782Z,4.82
2022-10-26T20:36:18.807Z,4.95
2022-10-26T20:38:46.009Z,3.15
2022-10-26T20:41:13.463Z,3.00
2022-10-26T20:43:41.155Z,2.00
2022-10-26T20:46:28.059Z,2.40
2022-10-26T20:48:55.421Z,2.15
2022-10-26T20:51:35.550Z,1.90
2022-10-26T20:54:15.621Z,1.60
2022-10-26T20:56:42.695Z,1.30
2022-10-26T20:59:24.966Z,1.42
2022-10-26T21:01:52.043Z,1.17
2022-10-26T21:04:21.448Z,1.50
2022-10-26T21:06:48.339Z,1.20
2022-10-26T21:09:15.679Z,2.90
2022-10-26T21:11:42.952Z,2.63
2022-10-26T21:14:09.807Z,1.52
2022-10-26T21:16:36.680Z,2.40
2022-10-26T21:19:05.143Z,1.83
2022-10-26T21:21:32.048Z,1.75
2022-10-26T21:23:58.887Z,0.98
2022-10-26T21:26:26.747Z,1.02
2022-10-26T21:28:55.170Z,1.17
2022-10-26T21:31:22.090Z,1.92
2022-10-26T21:33:49.187Z,1.70
2022-10-26T21:36:17.255Z,1.20
2022-10-26T21:38:45.709Z,1.98
2022-10-26T21:41:13.898Z,2.10
2022-10-26T21:43:43.333Z,1.48
2022-10-26T21:46:11.172Z,1.85
2022-10-26T21:48:40.993Z,1.33
2022-10-26T21:51:28.455Z,1.65
2022-10-26T21:53:55.401Z,1.65
2022-10-26T21:56:22.508Z,2.00
2022-10-26T21:58:49.560Z,0.80
2022-10-26T22:01:18.939Z,1.70
2022-10-26T22:03:46.844Z,1.23
2022-10-26T22:06:16.614Z,0.80
2022-10-26T22:08:44.054Z,0.70
2022-10-26T22:11:17.001Z,1.20
2022-10-26T22:13:45.474Z,0.55
2022-10-26T22:16:17.431Z,0.63
2022-10-26T22:18:45.911Z,0.40
2022-10-26T22:21:15.716Z,1.23
2022-10-26T22:23:43.517Z,1.33
2022-10-26T22:26:12.943Z,0.60
2022-10-26T22:28:42.935Z,0.90
2022-10-26T22:31:13.171Z,2.83
2022-10-26T22:33:40.795Z,1.23
2022-10-26T22:36:12.866Z,1.25
2022-10-26T22:38:40.009Z,1.58
2022-10-26T22:41:07.308Z,1.00
2022-10-26T22:43:34.264Z,1.00
2022-10-26T22:46:08.196Z,0.70
2022-10-26T22:48:35.729Z,0.85
2022-10-26T22:51:18.742Z,0.90
2022-10-26T22:53:46.490Z,0.85
2022-10-26T22:56:14.777Z,0.70
2022-10-26T22:58:41.773Z,0.60
2022-10-26T23:01:12.652Z,0.90
2022-10-26T23:03:40.057Z,0.70
2022-10-26T23:06:08.716Z,0.75
2022-10-26T23:08:35.620Z,1.17
2022-10-26T23:11:05.107Z,0.65
2022-10-26T23:13:32.992Z,0.77
2022-10-26T23:16:09.956Z,0.50
2022-10-26T23:18:37.220Z,0.38
2022-10-26T23:21:05.886Z,0.63
2022-10-26T23:23:33.257Z,0.82
2022-10-26T23:26:01.948Z,1.27
2022-10-26T23:28:28.987Z,1.00
2022-10-26T23:30:56.027Z,0.63
2022-10-26T23:33:23.126Z,0.63
2022-10-26T23:35:53.728Z,0.63
2022-10-26T23:38:21.064Z,0.63
2022-10-26T23:40:56.051Z,0.50
2022-10-26T23:43:24.590Z,1.42
2022-10-26T23:45:51.507Z,0.57
2022-10-26T23:48:22.160Z,0.80
2022-10-26T23:50:51.146Z,0.75
2022-10-26T23:53:21.683Z,0.60
2022-10-26T23:55:48.605Z,0.70
2022-10-26T23:58:16.848Z,0.63
